sensor_id;sensor_type;location;lat;lon;timestamp;P1;durP1;ratioP1;P2;durP2;ratioP2
37763;SDS011;23602;51.084;7.090;2022-11-06T00:00:51;11.35;;;5.53;;
37763;SDS011;23602;51.084;7.090;2022-11-06T00:03:16;16.02;;;5.80;;
37763;SDS011;23602;51.084;7.090;2022-11-06T00:05:42;11.90;;;5.18;;
37763;SDS011;23602;51.084;7.090;2022-11-06T00:08:35;10.02;;;4.90;;
37763;SDS011;23602;51.084;7.090;2022-11-06T00:11:10;10.82;;;5.38;;
37763;SDS011;23602;51.084;7.090;2022-11-06T00:13:39;7.30;;;4.50;;
37763;SDS011;23602;51.084;7.090;2022-11-06T00:16:06;9.88;;;5.28;;
37763;SDS011;23602;51.084;7.090;2022-11-06T00:18:33;8.85;;;4.40;;
37763;SDS011;23602;51.084;7.090;2022-11-06T00:21:22;9.23;;;4.25;;
37763;SDS011;23602;51.084;7.090;2022-11-06T00:23:52;12.05;;;4.85;;
37763;SDS011;23602;51.084;7.090;2022-11-06T00:26:19;14.27;;;4.65;;
37763;SDS011;23602;51.084;7.090;2022-11-06T00:28:46;11.40;;;4.13;;
37763;SDS011;23602;51.084;7.090;2022-11-06T00:31:13;11.18;;;4.65;;
37763;SDS011;23602;51.084;7.090;2022-11-06T00:33:45;9.57;;;4.35;;
37763;SDS011;23602;51.084;7.090;2022-11-06T00:36:12;11.50;;;3.97;;
37763;SDS011;23602;51.084;7.090;2022-11-06T00:38:39;10.48;;;3.72;;
37763;SDS011;23602;51.084;7.090;2022-11-06T00:41:06;14.50;;;4.82;;
37763;SDS011;23602;51.084;7.090;2022-11-06T00:43:34;8.55;;;3.90;;
37763;SDS011;23602;51.084;7.090;2022-11-06T00:46:04;9.82;;;4.00;;
37763;SDS011;23602;51.084;7.090;2022-11-06T00:48:39;6.75;;;3.60;;
37763;SDS011;23602;51.084;7.090;2022-11-06T00:53:38;14.57;;;4.15;;
37763;SDS011;23602;51.084;7.090;2022-11-06T00:56:14;9.77;;;3.42;;
37763;SDS011;23602;51.084;7.090;2022-11-06T00:58:41;10.05;;;3.75;;
37763;SDS011;23602;51.084;7.090;2022-11-06T01:01:08;8.68;;;4.05;;
37763;SDS011;23602;51.084;7.090;2022-11-06T01:03:37;11.05;;;4.65;;
37763;SDS011;23602;51.084;7.090;2022-11-06T01:06:04;6.63;;;3.55;;
37763;SDS011;23602;51.084;7.090;2022-11-06T01:08:31;5.85;;;3.47;;
37763;SDS011;23602;51.084;7.090;2022-11-06T01:11:04;8.10;;;3.50;;
37763;SDS011;23602;51.084;7.090;2022-11-06T01:13:30;9.10;;;3.53;;
37763;SDS011;23602;51.084;7.090;2022-11-06T01:15:56;8.52;;;3.22;;
37763;SDS011;23602;51.084;7.090;2022-11-06T01:18:21;8.65;;;4.13;;
37763;SDS011;23602;51.084;7.090;2022-11-06T01:20:47;10.07;;;3.95;;
37763;SDS011;23602;51.084;7.090;2022-11-06T01:23:13;6.32;;;3.83;;
37763;SDS011;23602;51.084;7.090;2022-11-06T01:25:38;6.50;;;3.75;;
37763;SDS011;23602;51.084;7.090;2022-11-06T01:28:03;12.95;;;4.05;;
37763;SDS011;23602;51.084;7.090;2022-11-06T01:30:29;6.20;;;3.42;;
37763;SDS011;23602;51.084;7.090;2022-11-06T01:32:54;10.63;;;3.88;;
37763;SDS011;23602;51.084;7.090;2022-11-06T01:35:22;11.52;;;4.13;;
37763;SDS011;23602;51.084;7.090;2022-11-06T01:37:47;7.30;;;3.55;;
37763;SDS011;23602;51.084;7.090;2022-11-06T01:40:13;13.05;;;4.43;;
37763;SDS011;23602;51.084;7.090;2022-11-06T01:42:38;17.98;;;6.90;;
37763;SDS011;23602;51.084;7.090;2022-11-06T01:45:16;11.35;;;3.80;;
37763;SDS011;23602;51.084;7.090;2022-11-06T01:47:50;8.57;;;3.95;;
37763;SDS011;23602;51.084;7.090;2022-11-06T01:50:15;7.25;;;3.95;;
37763;SDS011;23602;51.084;7.090;2022-11-06T01:52:42;6.60;;;3.53;;
37763;SDS011;23602;51.084;7.090;2022-11-06T01:55:12;11.88;;;3.83;;
37763;SDS011;23602;51.084;7.090;2022-11-06T01:57:44;8.15;;;3.20;;
37763;SDS011;23602;51.084;7.090;2022-11-06T02:00:10;8.52;;;4.28;;
37763;SDS011;23602;51.084;7.090;2022-11-06T02:02:36;9.05;;;3.90;;
37763;SDS011;23602;51.084;7.090;2022-11-06T02:05:03;7.20;;;3.50;;
37763;SDS011;23602;51.084;7.090;2022-11-06T02:07:29;10.05;;;3.72;;
37763;SDS011;23602;51.084;7.090;2022-11-06T02:09:56;8.38;;;3.75;;
37763;SDS011;23602;51.084;7.090;2022-11-06T02:19:05;17.35;;;6.05;;
37763;SDS011;23602;51.084;7.090;2022-11-06T02:24:46;11.25;;;3.70;;
37763;SDS011;23602;51.084;7.090;2022-11-06T02:27:23;7.75;;;3.92;;
37763;SDS011;23602;51.084;7.090;2022-11-06T02:29:55;8.63;;;3.20;;
37763;SDS011;23602;51.084;7.090;2022-11-06T02:32:39;9.25;;;2.90;;
37763;SDS011;23602;51.084;7.090;2022-11-06T02:35:26;11.77;;;3.25;;
37763;SDS011;23602;51.084;7.090;2022-11-06T02:38:06;6.20;;;3.33;;
37763;SDS011;23602;51.084;7.090;2022-11-06T02:40:34;7.18;;;3.30;;
37763;SDS011;23602;51.084;7.090;2022-11-06T02:43:05;15.10;;;4.72;;
37763;SDS011;23602;51.084;7.090;2022-11-06T02:45:33;10.68;;;3.38;;
37763;SDS011;23602;51.084;7.090;2022-11-06T02:48:05;6.32;;;3.00;;
37763;SDS011;23602;51.084;7.090;2022-11-06T02:50:34;5.57;;;3.00;;
37763;SDS011;23602;51.084;7.090;2022-11-06T02:53:05;8.90;;;3.97;;
37763;SDS011;23602;51.084;7.090;2022-11-06T02:55:38;5.78;;;3.38;;
37763;SDS011;23602;51.084;7.090;2022-11-06T02:58:23;8.27;;;3.10;;
37763;SDS011;23602;51.084;7.090;2022-11-06T03:00:58;8.63;;;3.53;;
37763;SDS011;23602;51.084;7.090;2022-11-06T03:03:29;7.22;;;3.10;;
37763;SDS011;23602;51.084;7.090;2022-11-06T03:06:14;11.65;;;3.50;;
37763;SDS011;23602;51.084;7.090;2022-11-06T03:08:50;13.10;;;3.05;;
37763;SDS011;23602;51.084;7.090;2022-11-06T03:11:24;7.95;;;3.20;;
37763;SDS011;23602;51.084;7.090;2022-11-06T03:13:55;9.35;;;3.53;;
37763;SDS011;23602;51.084;7.090;2022-11-06T03:38:25;9.15;;;2.60;;
37763;SDS011;23602;51.084;7.090;2022-11-06T03:40:58;6.50;;;2.35;;
37763;SDS011;23602;51.084;7.090;2022-11-06T03:43:30;8.85;;;3.03;;
37763;SDS011;23602;51.084;7.090;2022-11-06T03:46:00;10.93;;;2.95;;
37763;SDS011;23602;51.084;7.090;2022-11-06T03:48:30;6.93;;;2.33;;
37763;SDS011;23602;51.084;7.090;2022-11-06T03:51:07;4.90;;;2.30;;
37763;SDS011;23602;51.084;7.090;2022-11-06T03:56:19;5.30;;;2.25;;
37763;SDS011;23602;51.084;7.090;2022-11-06T03:59:04;11.30;;;4.57;;
37763;SDS011;23602;51.084;7.090;2022-11-06T04:01:42;5.68;;;2.17;;
37763;SDS011;23602;51.084;7.090;2022-11-06T04:04:14;8.85;;;2.53;;
37763;SDS011;23602;51.084;7.090;2022-11-06T04:06:51;5.32;;;2.33;;
37763;SDS011;23602;51.084;7.090;2022-11-06T04:09:26;7.55;;;2.47;;
37763;SDS011;23602;51.084;7.090;2022-11-06T04:12:14;8.88;;;2.92;;
37763;SDS011;23602;51.084;7.090;2022-11-06T04:15:02;6.82;;;2.72;;
37763;SDS011;23602;51.084;7.090;2022-11-06T04:17:31;5.60;;;2.47;;
37763;SDS011;23602;51.084;7.090;2022-11-06T04:20:00;10.23;;;2.30;;
37763;SDS011;23602;51.084;7.090;2022-11-06T04:28:12;6.30;;;2.17;;
37763;SDS011;23602;51.084;7.090;2022-11-06T04:42:17;17.70;;;2.03;;
37763;SDS011;23602;51.084;7.090;2022-11-06T04:45:03;5.65;;;2.13;;
37763;SDS011;23602;51.084;7.090;2022-11-06T04:47:37;6.43;;;2.13;;
37763;SDS011;23602;51.084;7.090;2022-11-06T04:50:03;7.97;;;2.00;;
37763;SDS011;23602;51.084;7.090;2022-11-06T04:52:31;7.13;;;1.75;;
37763;SDS011;23602;51.084;7.090;2022-11-06T04:54:58;8.13;;;1.90;;
37763;SDS011;23602;51.084;7.090;2022-11-06T04:57:24;7.45;;;2.33;;
37763;SDS011;23602;51.084;7.090;2022-11-06T04:59:50;16.02;;;2.30;;
37763;SDS011;23602;51.084;7.090;2022-11-06T05:02:16;5.53;;;1.50;;
37763;SDS011;23602;51.084;7.090;2022-11-06T05:04:41;5.90;;;2.13;;
37763;SDS011;23602;51.084;7.090;2022-11-06T05:07:07;2.55;;;1.70;;
37763;SDS011;23602;51.084;7.090;2022-11-06T05:09:35;9.25;;;2.20;;
37763;SDS011;23602;51.084;7.090;2022-11-06T05:12:00;6.93;;;1.60;;
37763;SDS011;23602;51.084;7.090;2022-11-06T05:14:26;6.28;;;1.75;;
37763;SDS011;23602;51.084;7.090;2022-11-06T05:16:51;4.28;;;1.60;;
37763;SDS011;23602;51.084;7.090;2022-11-06T05:19:16;7.88;;;2.95;;
37763;SDS011;23602;51.084;7.090;2022-11-06T05:21:41;5.15;;;2.03;;
37763;SDS011;23602;51.084;7.090;2022-11-06T05:24:25;6.40;;;2.15;;
37763;SDS011;23602;51.084;7.090;2022-11-06T05:26:50;6.05;;;1.90;;
37763;SDS011;23602;51.084;7.090;2022-11-06T05:29:16;10.68;;;1.73;;
37763;SDS011;23602;51.084;7.090;2022-11-06T05:31:41;3.90;;;1.77;;
37763;SDS011;23602;51.084;7.090;2022-11-06T05:36:37;5.25;;;2.10;;
37763;SDS011;23602;51.084;7.090;2022-11-06T05:39:03;5.45;;;1.98;;
37763;SDS011;23602;51.084;7.090;2022-11-06T05:41:28;4.88;;;2.13;;
37763;SDS011;23602;51.084;7.090;2022-11-06T05:43:53;9.23;;;2.83;;
37763;SDS011;23602;51.084;7.090;2022-11-06T05:46:18;10.73;;;2.35;;
37763;SDS011;23602;51.084;7.090;2022-11-06T05:51:11;10.52;;;2.33;;
37763;SDS011;23602;51.084;7.090;2022-11-06T05:53:37;9.68;;;2.65;;
37763;SDS011;23602;51.084;7.090;2022-11-06T05:56:02;6.82;;;1.80;;
37763;SDS011;23602;51.084;7.090;2022-11-06T05:58:31;6.32;;;2.88;;
37763;SDS011;23602;51.084;7.090;2022-11-06T06:00:56;9.38;;;2.33;;
37763;SDS011;23602;51.084;7.090;2022-11-06T06:03:25;7.15;;;2.00;;
37763;SDS011;23602;51.084;7.090;2022-11-06T06:05:53;11.10;;;2.63;;
37763;SDS011;23602;51.084;7.090;2022-11-06T06:08:18;14.40;;;4.43;;
37763;SDS011;23602;51.084;7.090;2022-11-06T06:10:44;9.95;;;3.38;;
37763;SDS011;23602;51.084;7.090;2022-11-06T06:13:10;11.73;;;3.60;;
37763;SDS011;23602;51.084;7.090;2022-11-06T06:15:36;14.60;;;3.05;;
37763;SDS011;23602;51.084;7.090;2022-11-06T06:18:03;4.72;;;1.85;;
37763;SDS011;23602;51.084;7.090;2022-11-06T06:20:28;6.15;;;2.38;;
37763;SDS011;23602;51.084;7.090;2022-11-06T06:22:54;7.68;;;2.33;;
37763;SDS011;23602;51.084;7.090;2022-11-06T06:25:21;6.45;;;2.15;;
37763;SDS011;23602;51.084;7.090;2022-11-06T06:27:46;7.72;;;2.78;;
37763;SDS011;23602;51.084;7.090;2022-11-06T06:30:12;7.22;;;2.40;;
37763;SDS011;23602;51.084;7.090;2022-11-06T06:32:39;6.82;;;2.10;;
37763;SDS011;23602;51.084;7.090;2022-11-06T06:35:05;6.57;;;2.20;;
37763;SDS011;23602;51.084;7.090;2022-11-06T06:37:32;4.57;;;2.17;;
37763;SDS011;23602;51.084;7.090;2022-11-06T06:40:00;7.80;;;1.90;;
37763;SDS011;23602;51.084;7.090;2022-11-06T06:42:27;7.55;;;2.17;;
37763;SDS011;23602;51.084;7.090;2022-11-06T06:44:52;4.82;;;2.35;;
37763;SDS011;23602;51.084;7.090;2022-11-06T06:47:18;7.72;;;2.60;;
37763;SDS011;23602;51.084;7.090;2022-11-06T06:49:43;8.27;;;2.35;;
37763;SDS011;23602;51.084;7.090;2022-11-06T06:52:09;8.95;;;2.50;;
37763;SDS011;23602;51.084;7.090;2022-11-06T06:54:35;10.93;;;2.47;;
37763;SDS011;23602;51.084;7.090;2022-11-06T06:57:01;8.45;;;2.85;;
37763;SDS011;23602;51.084;7.090;2022-11-06T06:59:27;5.22;;;2.47;;
37763;SDS011;23602;51.084;7.090;2022-11-06T07:01:53;5.75;;;2.60;;
37763;SDS011;23602;51.084;7.090;2022-11-06T07:04:20;9.83;;;3.00;;
37763;SDS011;23602;51.084;7.090;2022-11-06T07:06:45;7.53;;;2.72;;
37763;SDS011;23602;51.084;7.090;2022-11-06T07:09:10;7.97;;;2.17;;
37763;SDS011;23602;51.084;7.090;2022-11-06T07:11:36;5.35;;;2.08;;
37763;SDS011;23602;51.084;7.090;2022-11-06T07:14:04;7.00;;;2.15;;
37763;SDS011;23602;51.084;7.090;2022-11-06T07:16:32;4.28;;;2.15;;
37763;SDS011;23602;51.084;7.090;2022-11-06T07:18:57;9.10;;;3.58;;
37763;SDS011;23602;51.084;7.090;2022-11-06T07:21:23;5.10;;;1.90;;
37763;SDS011;23602;51.084;7.090;2022-11-06T07:23:48;6.35;;;2.13;;
37763;SDS011;23602;51.084;7.090;2022-11-06T07:26:14;8.57;;;2.65;;
37763;SDS011;23602;51.084;7.090;2022-11-06T07:28:39;4.85;;;2.30;;
37763;SDS011;23602;51.084;7.090;2022-11-06T07:31:05;6.32;;;2.67;;
37763;SDS011;23602;51.084;7.090;2022-11-06T07:33:32;7.45;;;2.35;;
37763;SDS011;23602;51.084;7.090;2022-11-06T07:36:02;5.40;;;2.67;;
37763;SDS011;23602;51.084;7.090;2022-11-06T07:38:35;15.30;;;2.92;;
37763;SDS011;23602;51.084;7.090;2022-11-06T07:41:05;8.93;;;2.35;;
37763;SDS011;23602;51.084;7.090;2022-11-06T07:43:32;8.38;;;2.47;;
37763;SDS011;23602;51.084;7.090;2022-11-06T07:45:59;9.45;;;3.58;;
37763;SDS011;23602;51.084;7.090;2022-11-06T07:48:29;8.05;;;2.60;;
37763;SDS011;23602;51.084;7.090;2022-11-06T07:50:55;10.50;;;2.35;;
37763;SDS011;23602;51.084;7.090;2022-11-06T07:53:21;6.68;;;2.80;;
37763;SDS011;23602;51.084;7.090;2022-11-06T07:55:47;13.40;;;3.33;;
37763;SDS011;23602;51.084;7.090;2022-11-06T07:58:16;7.75;;;2.88;;
37763;SDS011;23602;51.084;7.090;2022-11-06T08:00:49;6.22;;;2.65;;
37763;SDS011;23602;51.084;7.090;2022-11-06T08:03:19;8.93;;;2.33;;
37763;SDS011;23602;51.084;7.090;2022-11-06T08:05:47;7.70;;;2.95;;
37763;SDS011;23602;51.084;7.090;2022-11-06T08:08:13;5.60;;;2.30;;
37763;SDS011;23602;51.084;7.090;2022-11-06T08:10:38;7.65;;;3.05;;
37763;SDS011;23602;51.084;7.090;2022-11-06T08:13:11;4.70;;;2.45;;
37763;SDS011;23602;51.084;7.090;2022-11-06T08:15:40;11.18;;;3.17;;
37763;SDS011;23602;51.084;7.090;2022-11-06T08:18:16;7.27;;;2.57;;
37763;SDS011;23602;51.084;7.090;2022-11-06T08:20:43;7.43;;;2.97;;
37763;SDS011;23602;51.084;7.090;2022-11-06T08:23:09;7.15;;;2.33;;
37763;SDS011;23602;51.084;7.090;2022-11-06T08:25:42;12.27;;;2.50;;
37763;SDS011;23602;51.084;7.090;2022-11-06T08:28:18;8.15;;;2.33;;
37763;SDS011;23602;51.084;7.090;2022-11-06T08:30:43;9.55;;;2.13;;
37763;SDS011;23602;51.084;7.090;2022-11-06T08:33:11;8.05;;;2.10;;
37763;SDS011;23602;51.084;7.090;2022-11-06T08:35:44;7.63;;;2.20;;
37763;SDS011;23602;51.084;7.090;2022-11-06T08:38:18;12.82;;;3.47;;
37763;SDS011;23602;51.084;7.090;2022-11-06T08:40:46;10.68;;;2.88;;
37763;SDS011;23602;51.084;7.090;2022-11-06T08:43:12;6.65;;;2.38;;
37763;SDS011;23602;51.084;7.090;2022-11-06T08:45:40;6.90;;;2.00;;
37763;SDS011;23602;51.084;7.090;2022-11-06T08:48:07;5.15;;;1.92;;
37763;SDS011;23602;51.084;7.090;2022-11-06T08:50:34;6.00;;;3.10;;
37763;SDS011;23602;51.084;7.090;2022-11-06T08:53:01;8.82;;;2.35;;
37763;SDS011;23602;51.084;7.090;2022-11-06T08:55:31;8.77;;;4.35;;
37763;SDS011;23602;51.084;7.090;2022-11-06T08:57:58;7.03;;;2.17;;
37763;SDS011;23602;51.084;7.090;2022-11-06T09:00:24;11.23;;;2.13;;
37763;SDS011;23602;51.084;7.090;2022-11-06T09:02:49;8.15;;;2.38;;
37763;SDS011;23602;51.084;7.090;2022-11-06T09:05:15;5.50;;;1.98;;
37763;SDS011;23602;51.084;7.090;2022-11-06T09:07:43;8.52;;;2.40;;
37763;SDS011;23602;51.084;7.090;2022-11-06T09:10:08;7.88;;;2.45;;
37763;SDS011;23602;51.084;7.090;2022-11-06T09:12:35;5.10;;;2.22;;
37763;SDS011;23602;51.084;7.090;2022-11-06T09:15:11;5.75;;;2.10;;
37763;SDS011;23602;51.084;7.090;2022-11-06T09:17:46;9.65;;;2.45;;
37763;SDS011;23602;51.084;7.090;2022-11-06T09:20:16;8.80;;;2.17;;
37763;SDS011;23602;51.084;7.090;2022-11-06T09:22:43;6.80;;;2.35;;
37763;SDS011;23602;51.084;7.090;2022-11-06T09:25:09;5.90;;;2.10;;
37763;SDS011;23602;51.084;7.090;2022-11-06T09:30:11;6.40;;;2.22;;
37763;SDS011;23602;51.084;7.090;2022-11-06T09:32:39;7.75;;;2.33;;
37763;SDS011;23602;51.084;7.090;2022-11-06T09:35:12;10.23;;;4.35;;
37763;SDS011;23602;51.084;7.090;2022-11-06T09:37:37;8.18;;;1.77;;
37763;SDS011;23602;51.084;7.090;2022-11-06T09:40:03;5.20;;;1.92;;
37763;SDS011;23602;51.084;7.090;2022-11-06T09:45:10;7.13;;;2.03;;
37763;SDS011;23602;51.084;7.090;2022-11-06T09:47:42;7.78;;;2.53;;
37763;SDS011;23602;51.084;7.090;2022-11-06T09:50:13;11.10;;;3.65;;
37763;SDS011;23602;51.084;7.090;2022-11-06T09:52:45;4.80;;;1.85;;
37763;SDS011;23602;51.084;7.090;2022-11-06T09:58:04;7.68;;;2.88;;
37763;SDS011;23602;51.084;7.090;2022-11-06T10:00:42;5.13;;;1.92;;
37763;SDS011;23602;51.084;7.090;2022-11-06T10:05:42;4.93;;;2.05;;
37763;SDS011;23602;51.084;7.090;2022-11-06T10:08:21;8.57;;;2.55;;
37763;SDS011;23602;51.084;7.090;2022-11-06T10:11:02;5.28;;;1.95;;
37763;SDS011;23602;51.084;7.090;2022-11-06T10:20:16;4.63;;;1.90;;
37763;SDS011;23602;51.084;7.090;2022-11-06T10:23:27;6.43;;;2.15;;
37763;SDS011;23602;51.084;7.090;2022-11-06T10:34:29;4.43;;;1.92;;
37763;SDS011;23602;51.084;7.090;2022-11-06T10:37:07;7.15;;;1.92;;
37763;SDS011;23602;51.084;7.090;2022-11-06T10:39:38;7.57;;;2.70;;
37763;SDS011;23602;51.084;7.090;2022-11-06T10:42:06;3.05;;;1.67;;
37763;SDS011;23602;51.084;7.090;2022-11-06T10:44:48;5.70;;;2.25;;
37763;SDS011;23602;51.084;7.090;2022-11-06T10:50:09;6.57;;;2.22;;
37763;SDS011;23602;51.084;7.090;2022-11-06T11:01:11;5.90;;;2.20;;
37763;SDS011;23602;51.084;7.090;2022-11-06T11:03:39;9.98;;;2.83;;
37763;SDS011;23602;51.084;7.090;2022-11-06T11:06:10;4.88;;;2.03;;
37763;SDS011;23602;51.084;7.090;2022-11-06T11:08:53;8.13;;;2.58;;
37763;SDS011;23602;51.084;7.090;2022-11-06T11:11:22;6.40;;;2.45;;
37763;SDS011;23602;51.084;7.090;2022-11-06T11:16:42;5.70;;;2.05;;
37763;SDS011;23602;51.084;7.090;2022-11-06T11:19:22;7.18;;;2.22;;
37763;SDS011;23602;51.084;7.090;2022-11-06T11:21:58;9.30;;;2.50;;
37763;SDS011;23602;51.084;7.090;2022-11-06T11:24:27;8.17;;;3.00;;
37763;SDS011;23602;51.084;7.090;2022-11-06T11:26:58;4.05;;;2.17;;
37763;SDS011;23602;51.084;7.090;2022-11-06T11:29:30;4.45;;;2.20;;
37763;SDS011;23602;51.084;7.090;2022-11-06T11:31:58;8.05;;;2.30;;
37763;SDS011;23602;51.084;7.090;2022-11-06T11:34:27;5.75;;;2.42;;
37763;SDS011;23602;51.084;7.090;2022-11-06T11:37:04;9.52;;;2.95;;
37763;SDS011;23602;51.084;7.090;2022-11-06T11:39:36;9.57;;;2.55;;
37763;SDS011;23602;51.084;7.090;2022-11-06T11:42:16;8.70;;;2.85;;
37763;SDS011;23602;51.084;7.090;2022-11-06T11:47:36;5.45;;;2.15;;
37763;SDS011;23602;51.084;7.090;2022-11-06T11:52:49;6.22;;;2.20;;
37763;SDS011;23602;51.084;7.090;2022-11-06T11:55:53;6.68;;;1.90;;
37763;SDS011;23602;51.084;7.090;2022-11-06T11:58:38;6.03;;;3.20;;
37763;SDS011;23602;51.084;7.090;2022-11-06T12:01:04;5.10;;;2.42;;
37763;SDS011;23602;51.084;7.090;2022-11-06T12:03:39;2.95;;;1.90;;
37763;SDS011;23602;51.084;7.090;2022-11-06T12:06:08;10.07;;;2.55;;
37763;SDS011;23602;51.084;7.090;2022-11-06T12:08:38;6.55;;;2.20;;
37763;SDS011;23602;51.084;7.090;2022-11-06T12:11:11;5.57;;;2.28;;
37763;SDS011;23602;51.084;7.090;2022-11-06T12:13:46;6.10;;;1.95;;
37763;SDS011;23602;51.084;7.090;2022-11-06T12:16:59;5.13;;;1.95;;
37763;SDS011;23602;51.084;7.090;2022-11-06T12:19:32;6.20;;;2.15;;
37763;SDS011;23602;51.084;7.090;2022-11-06T12:22:02;6.13;;;2.08;;
37763;SDS011;23602;51.084;7.090;2022-11-06T12:27:14;4.80;;;2.23;;
37763;SDS011;23602;51.084;7.090;2022-11-06T12:30:00;5.28;;;1.95;;
37763;SDS011;23602;51.084;7.090;2022-11-06T12:32:35;7.90;;;1.98;;
37763;SDS011;23602;51.084;7.090;2022-11-06T12:35:29;4.22;;;1.80;;
37763;SDS011;23602;51.084;7.090;2022-11-06T12:41:35;5.72;;;1.90;;
37763;SDS011;23602;51.084;7.090;2022-11-06T12:43:56;5.60;;;1.70;;
37763;SDS011;23602;51.084;7.090;2022-11-06T12:49:33;6.75;;;2.00;;
37763;SDS011;23602;51.084;7.090;2022-11-06T13:01:12;8.15;;;1.60;;
37763;SDS011;23602;51.084;7.090;2022-11-06T13:10:21;4.53;;;2.00;;
37763;SDS011;23602;51.084;7.090;2022-11-06T13:22:37;7.10;;;2.13;;
37763;SDS011;23602;51.084;7.090;2022-11-06T13:29:03;2.85;;;1.40;;
37763;SDS011;23602;51.084;7.090;2022-11-06T13:32:01;2.65;;;1.40;;
37763;SDS011;23602;51.084;7.090;2022-11-06T13:34:40;4.00;;;1.20;;
37763;SDS011;23602;51.084;7.090;2022-11-06T13:40:44;3.08;;;1.30;;
37763;SDS011;23602;51.084;7.090;2022-11-06T13:43:25;4.75;;;1.65;;
37763;SDS011;23602;51.084;7.090;2022-11-06T13:46:06;9.23;;;1.52;;
37763;SDS011;23602;51.084;7.090;2022-11-06T13:49:21;4.15;;;1.65;;
37763;SDS011;23602;51.084;7.090;2022-11-06T13:54:46;3.95;;;1.42;;
37763;SDS011;23602;51.084;7.090;2022-11-06T14:00:34;3.63;;;1.65;;
37763;SDS011;23602;51.084;7.090;2022-11-06T14:06:24;3.10;;;1.20;;
37763;SDS011;23602;51.084;7.090;2022-11-06T14:09:17;3.45;;;1.15;;
37763;SDS011;23602;51.084;7.090;2022-11-06T14:11:58;9.95;;;1.60;;
37763;SDS011;23602;51.084;7.090;2022-11-06T14:14:43;5.22;;;1.60;;
37763;SDS011;23602;51.084;7.090;2022-11-06T14:19:41;2.63;;;1.30;;
37763;SDS011;23602;51.084;7.090;2022-11-06T14:36:11;3.15;;;1.10;;
37763;SDS011;23602;51.084;7.090;2022-11-06T14:38:50;2.53;;;1.50;;
37763;SDS011;23602;51.084;7.090;2022-11-06T14:44:13;2.53;;;1.70;;
37763;SDS011;23602;51.084;7.090;2022-11-06T14:46:50;6.03;;;1.85;;
37763;SDS011;23602;51.084;7.090;2022-11-06T14:49:38;8.20;;;1.75;;
37763;SDS011;23602;51.084;7.090;2022-11-06T14:52:10;6.43;;;2.58;;
37763;SDS011;23602;51.084;7.090;2022-11-06T14:54:39;3.40;;;1.65;;
37763;SDS011;23602;51.084;7.090;2022-11-06T14:57:15;4.45;;;1.40;;
37763;SDS011;23602;51.084;7.090;2022-11-06T15:00:01;6.57;;;1.60;;
37763;SDS011;23602;51.084;7.090;2022-11-06T15:02:27;4.28;;;1.48;;
37763;SDS011;23602;51.084;7.090;2022-11-06T15:05:06;3.20;;;1.42;;
37763;SDS011;23602;51.084;7.090;2022-11-06T15:10:04;3.88;;;1.50;;
37763;SDS011;23602;51.084;7.090;2022-11-06T15:15:43;4.72;;;1.50;;
37763;SDS011;23602;51.084;7.090;2022-11-06T15:18:20;6.63;;;3.15;;
37763;SDS011;23602;51.084;7.090;2022-11-06T15:20:48;3.55;;;1.60;;
37763;SDS011;23602;51.084;7.090;2022-11-06T15:32:08;5.25;;;1.60;;
37763;SDS011;23602;51.084;7.090;2022-11-06T15:34:42;9.43;;;2.20;;
37763;SDS011;23602;51.084;7.090;2022-11-06T15:37:20;5.63;;;1.42;;
37763;SDS011;23602;51.084;7.090;2022-11-06T15:39:53;3.67;;;2.25;;
37763;SDS011;23602;51.084;7.090;2022-11-06T15:42:26;8.65;;;2.20;;
37763;SDS011;23602;51.084;7.090;2022-11-06T15:48:18;5.07;;;2.08;;
37763;SDS011;23602;51.084;7.090;2022-11-06T15:50:45;5.22;;;2.20;;
37763;SDS011;23602;51.084;7.090;2022-11-06T15:55:48;5.93;;;2.60;;
37763;SDS011;23602;51.084;7.090;2022-11-06T16:00:47;6.07;;;3.00;;
37763;SDS011;23602;51.084;7.090;2022-11-06T16:03:18;4.85;;;2.60;;
37763;SDS011;23602;51.084;7.090;2022-11-06T16:06:03;6.18;;;2.47;;
37763;SDS011;23602;51.084;7.090;2022-11-06T16:08:49;5.25;;;2.42;;
37763;SDS011;23602;51.084;7.090;2022-11-06T16:11:18;5.22;;;2.67;;
37763;SDS011;23602;51.084;7.090;2022-11-06T16:14:00;3.60;;;2.40;;
37763;SDS011;23602;51.084;7.090;2022-11-06T16:16:33;4.97;;;2.13;;
37763;SDS011;23602;51.084;7.090;2022-11-06T16:19:24;8.07;;;2.90;;
37763;SDS011;23602;51.084;7.090;2022-11-06T16:22:11;5.55;;;3.05;;
37763;SDS011;23602;51.084;7.090;2022-11-06T16:24:41;26.98;;;11.00;;
37763;SDS011;23602;51.084;7.090;2022-11-06T16:29:46;14.82;;;5.90;;
37763;SDS011;23602;51.084;7.090;2022-11-06T16:32:17;25.85;;;10.70;;
37763;SDS011;23602;51.084;7.090;2022-11-06T16:34:46;16.17;;;7.68;;
37763;SDS011;23602;51.084;7.090;2022-11-06T16:39:48;11.30;;;3.80;;
37763;SDS011;23602;51.084;7.090;2022-11-06T16:42:20;11.82;;;5.10;;
37763;SDS011;23602;51.084;7.090;2022-11-06T16:44:47;7.22;;;3.92;;
37763;SDS011;23602;51.084;7.090;2022-11-06T16:47:23;8.48;;;4.00;;
37763;SDS011;23602;51.084;7.090;2022-11-06T16:49:59;4.85;;;2.75;;
37763;SDS011;23602;51.084;7.090;2022-11-06T16:52:29;5.68;;;2.65;;
37763;SDS011;23602;51.084;7.090;2022-11-06T16:57:56;6.35;;;2.63;;
37763;SDS011;23602;51.084;7.090;2022-11-06T17:00:41;4.22;;;2.10;;
37763;SDS011;23602;51.084;7.090;2022-11-06T17:03:19;6.75;;;2.13;;
37763;SDS011;23602;51.084;7.090;2022-11-06T17:08:56;4.00;;;2.35;;
37763;SDS011;23602;51.084;7.090;2022-11-06T17:11:56;5.47;;;3.00;;
37763;SDS011;23602;51.084;7.090;2022-11-06T17:14:27;4.13;;;2.25;;
37763;SDS011;23602;51.084;7.090;2022-11-06T17:17:03;6.30;;;2.30;;
37763;SDS011;23602;51.084;7.090;2022-11-06T17:19:36;6.40;;;2.10;;
37763;SDS011;23602;51.084;7.090;2022-11-06T17:22:08;4.88;;;2.35;;
37763;SDS011;23602;51.084;7.090;2022-11-06T17:24:45;3.72;;;2.42;;
37763;SDS011;23602;51.084;7.090;2022-11-06T17:27:19;6.65;;;2.60;;
37763;SDS011;23602;51.084;7.090;2022-11-06T17:29:45;4.40;;;2.38;;
37763;SDS011;23602;51.084;7.090;2022-11-06T17:32:20;4.53;;;2.05;;
37763;SDS011;23602;51.084;7.090;2022-11-06T17:35:05;7.72;;;2.78;;
37763;SDS011;23602;51.084;7.090;2022-11-06T17:37:31;5.37;;;2.37;;
37763;SDS011;23602;51.084;7.090;2022-11-06T17:39:59;8.05;;;2.67;;
37763;SDS011;23602;51.084;7.090;2022-11-06T17:42:35;4.60;;;2.47;;
37763;SDS011;23602;51.084;7.090;2022-11-06T17:45:05;5.18;;;2.47;;
37763;SDS011;23602;51.084;7.090;2022-11-06T17:47:38;5.15;;;2.92;;
37763;SDS011;23602;51.084;7.090;2022-11-06T17:50:04;4.95;;;3.00;;
37763;SDS011;23602;51.084;7.090;2022-11-06T17:52:32;4.32;;;2.33;;
37763;SDS011;23602;51.084;7.090;2022-11-06T17:55:07;3.97;;;2.63;;
37763;SDS011;23602;51.084;7.090;2022-11-06T17:57:43;3.30;;;2.15;;
37763;SDS011;23602;51.084;7.090;2022-11-06T18:00:09;5.03;;;2.75;;
37763;SDS011;23602;51.084;7.090;2022-11-06T18:02:44;5.93;;;2.67;;
37763;SDS011;23602;51.084;7.090;2022-11-06T18:05:10;5.53;;;3.13;;
37763;SDS011;23602;51.084;7.090;2022-11-06T18:07:40;4.95;;;2.80;;
37763;SDS011;23602;51.084;7.090;2022-11-06T18:10:06;4.80;;;2.67;;
37763;SDS011;23602;51.084;7.090;2022-11-06T18:12:31;9.88;;;3.00;;
37763;SDS011;23602;51.084;7.090;2022-11-06T18:15:02;3.90;;;2.70;;
37763;SDS011;23602;51.084;7.090;2022-11-06T18:17:27;5.43;;;2.80;;
37763;SDS011;23602;51.084;7.090;2022-11-06T18:19:55;6.78;;;3.17;;
37763;SDS011;23602;51.084;7.090;2022-11-06T18:22:23;4.00;;;2.47;;
37763;SDS011;23602;51.084;7.090;2022-11-06T18:24:48;6.90;;;3.95;;
37763;SDS011;23602;51.084;7.090;2022-11-06T18:27:29;5.97;;;2.80;;
37763;SDS011;23602;51.084;7.090;2022-11-06T18:29:57;4.72;;;2.88;;
37763;SDS011;23602;51.084;7.090;2022-11-06T18:32:23;4.47;;;2.45;;
37763;SDS011;23602;51.084;7.090;2022-11-06T18:35:11;6.65;;;3.17;;
37763;SDS011;23602;51.084;7.090;2022-11-06T18:37:38;7.38;;;2.70;;
37763;SDS011;23602;51.084;7.090;2022-11-06T18:40:31;4.65;;;2.45;;